Time;durP1;ratioP1;P1;durP2;ratioP2;P2;SDS_P1;SDS_P2;PMS_P1;PMS_P2;Temp;Humidity;BMP_temperature;BMP_pressure;BME280_temperature;BME280_humidity;BME280_pressure;Samples;Min_cycle;Max_cycle;Signal;HPM_P1;HPM_P2
2023/10/20 00:01:54;;;;;;;29.85;20.10;;;14.30;99.90;;;;;;5047428;28;20021;-71
2023/10/20 00:04:19;;;;;;;34.97;20.08;;;14.30;99.90;;;;;;5052882;28;20047;-72
2023/10/20 00:06:45;;;;;;;27.17;18.20;;;14.30;99.90;;;;;;5047934;28;20021;-71
2023/10/20 00:09:14;;;;;;;27.90;19.70;;;14.40;99.90;;;;;;5050710;28;20025;-71
2023/10/20 00:11:41;;;;;;;26.48;18.55;;;14.30;99.90;;;;;;5050309;28;20017;-71
2023/10/20 00:14:07;;;;;;;27.58;19.13;;;14.40;99.90;;;;;;5051724;28;20025;-71
2023/10/20 00:16:33;;;;;;;27.58;18.70;;;14.40;99.90;;;;;;5039149;28;20040;-71
2023/10/20 00:19:01;;;;;;;26.52;18.90;;;14.30;99.90;;;;;;5047704;28;20051;-71
2023/10/20 00:21:26;;;;;;;28.13;18.98;;;14.40;99.90;;;;;;5047626;28;20028;-71
2023/10/20 00:23:52;;;;;;;31.17;21.58;;;14.40;99.90;;;;;;5042367;28;20030;-71
2023/10/20 00:26:18;;;;;;;29.80;19.48;;;14.40;99.90;;;;;;5041394;28;20048;-71
2023/10/20 00:28:44;;;;;;;29.13;20.73;;;14.40;99.90;;;;;;5051280;28;20033;-71
2023/10/20 00:31:11;;;;;;;31.25;19.60;;;14.40;99.90;;;;;;5033297;28;20074;-71
2023/10/20 00:33:40;;;;;;;30.20;19.50;;;14.40;99.90;;;;;;5051502;28;20075;-71
2023/10/20 00:36:08;;;;;;;30.33;20.95;;;14.40;99.90;;;;;;5049609;28;20386;-71
2023/10/20 00:38:33;;;;;;;25.65;19.50;;;14.40;99.90;;;;;;5048121;28;20087;-71
2023/10/20 00:40:59;;;;;;;24.92;18.00;;;14.40;99.90;;;;;;5047552;28;20397;-72
2023/10/20 00:43:37;;;;;;;27.48;19.60;;;14.40;99.90;;;;;;5050907;28;20044;-71
2023/10/20 00:46:07;;;;;;;32.92;19.92;;;14.40;99.90;;;;;;5049589;28;20028;-71
2023/10/20 00:48:34;;;;;;;28.38;20.10;;;14.30;99.90;;;;;;5047118;28;20079;-71
2023/10/20 00:51:00;;;;;;;22.45;17.17;;;14.30;99.90;;;;;;5047954;28;20029;-71
2023/10/20 00:53:30;;;;;;;30.23;20.42;;;14.30;99.90;;;;;;5047637;28;20028;-71
2023/10/20 00:55:57;;;;;;;27.45;19.70;;;14.30;99.90;;;;;;5045572;28;20029;-71
2023/10/20 00:58:27;;;;;;;28.58;20.05;;;14.30;99.90;;;;;;5047597;28;20098;-71
2023/10/20 01:00:53;;;;;;;25.42;17.95;;;14.30;99.90;;;;;;5051304;28;20388;-71
2023/10/20 01:03:19;;;;;;;27.77;20.63;;;14.20;99.90;;;;;;5048624;28;20086;-71
2023/10/20 01:05:45;;;;;;;28.77;20.77;;;14.20;99.90;;;;;;5049799;28;20451;-71
2023/10/20 01:08:11;;;;;;;29.70;19.88;;;14.20;99.90;;;;;;5044976;28;20108;-71
2023/10/20 01:10:37;;;;;;;31.15;20.23;;;14.20;99.90;;;;;;5049120;28;20559;-71
2023/10/20 01:13:02;;;;;;;27.92;19.23;;;14.20;99.90;;;;;;5048686;28;20059;-71
2023/10/20 01:15:28;;;;;;;31.38;21.08;;;14.20;99.90;;;;;;5048370;28;20477;-71
2023/10/20 01:17:54;;;;;;;28.17;20.05;;;14.10;99.90;;;;;;5044923;28;20040;-71
2023/10/20 01:20:20;;;;;;;30.95;20.05;;;14.10;99.90;;;;;;5043963;28;20063;-71
2023/10/20 01:22:45;;;;;;;37.40;21.88;;;14.10;99.90;;;;;;5049169;28;20029;-71
2023/10/20 01:25:11;;;;;;;31.90;22.15;;;14.10;99.90;;;;;;5047754;28;20029;-71
2023/10/20 01:27:37;;;;;;;33.70;21.55;;;14.10;99.90;;;;;;5047874;28;20033;-71
2023/10/20 01:30:03;;;;;;;28.15;20.33;;;14.10;99.90;;;;;;5043059;28;20483;-71
2023/10/20 01:32:29;;;;;;;32.03;20.60;;;14.00;99.90;;;;;;5046538;28;20401;-71
2023/10/20 01:34:54;;;;;;;32.60;20.35;;;14.00;99.90;;;;;;5050006;28;20028;-72
2023/10/20 01:37:20;;;;;;;32.08;20.13;;;14.00;99.90;;;;;;5047470;28;20052;-71
2023/10/20 01:39:45;;;;;;;29.08;20.42;;;14.00;99.90;;;;;;5042686;28;20118;-71
2023/10/20 01:42:11;;;;;;;29.58;20.27;;;14.00;99.90;;;;;;5045332;28;20370;-71
2023/10/20 01:44:36;;;;;;;27.98;19.15;;;14.00;99.90;;;;;;5048028;28;20025;-71
2023/10/20 01:47:02;;;;;;;27.88;19.92;;;14.00;99.90;;;;;;5049733;28;20366;-71
2023/10/20 01:49:28;;;;;;;34.50;20.77;;;14.00;99.90;;;;;;5043997;28;20499;-71
2023/10/20 01:51:54;;;;;;;37.10;22.80;;;14.00;99.90;;;;;;5044405;28;20036;-71
2023/10/20 01:54:19;;;;;;;29.55;21.55;;;14.00;99.90;;;;;;5046923;28;20025;-71
2023/10/20 01:56:45;;;;;;;30.20;19.65;;;14.00;99.90;;;;;;5044490;28;20138;-71
2023/10/20 01:59:12;;;;;;;33.22;21.42;;;14.00;99.90;;;;;;5045031;28;20033;-71
2023/10/20 02:01:38;;;;;;;29.45;20.35;;;14.00;99.90;;;;;;5046256;28;20032;-71
2023/10/20 02:04:04;;;;;;;30.48;20.83;;;14.00;99.90;;;;;;5048131;28;20029;-71
2023/10/20 02:06:30;;;;;;;27.50;20.73;;;14.00;99.90;;;;;;5048239;28;20029;-71
2023/10/20 02:08:55;;;;;;;31.42;19.48;;;14.00;99.90;;;;;;5048618;28;20029;-71
2023/10/20 02:11:21;;;;;;;26.52;20.10;;;14.00;99.90;;;;;;5047269;28;20496;-71
2023/10/20 02:13:47;;;;;;;25.95;18.30;;;14.00;99.90;;;;;;5046803;28;20416;-71
2023/10/20 02:16:13;;;;;;;31.92;21.60;;;13.90;99.90;;;;;;5047780;28;20033;-71
2023/10/20 02:18:39;;;;;;;27.95;20.63;;;13.90;99.90;;;;;;5042190;28;20086;-71
2023/10/20 02:21:07;;;;;;;32.38;23.50;;;13.90;99.90;;;;;;5045121;28;20036;-70
2023/10/20 02:23:40;;;;;;;31.58;22.73;;;13.90;99.90;;;;;;5047700;28;20074;-71
2023/10/20 02:26:08;;;;;;;32.85;22.33;;;13.90;99.90;;;;;;5040814;28;20406;-71
2023/10/20 02:28:37;;;;;;;30.23;23.13;;;13.90;99.90;;;;;;5050604;28;20033;-71
2023/10/20 02:31:14;;;;;;;35.60;23.80;;;13.90;99.90;;;;;;5044202;28;20108;-70
2023/10/20 02:33:40;;;;;;;33.95;24.67;;;13.90;99.90;;;;;;5051174;28;20108;-71
2023/10/20 02:36:06;;;;;;;35.45;24.58;;;13.90;99.90;;;;;;5049292;28;20120;-71
2023/10/20 02:38:31;;;;;;;32.28;23.40;;;13.80;99.90;;;;;;5049039;28;20090;-71
2023/10/20 02:40:57;;;;;;;40.40;26.38;;;13.90;99.90;;;;;;5046247;28;20036;-71
2023/10/20 02:43:23;;;;;;;35.38;25.48;;;13.80;99.90;;;;;;5048969;28;20067;-70
2023/10/20 02:45:49;;;;;;;39.20;25.85;;;13.90;99.90;;;;;;5047780;28;20036;-71
2023/10/20 02:48:15;;;;;;;39.30;27.02;;;13.90;99.90;;;;;;5046467;28;20033;-71
2023/10/20 02:50:41;;;;;;;35.30;25.75;;;13.80;99.90;;;;;;5045388;28;20039;-71
2023/10/20 02:53:07;;;;;;;36.80;27.48;;;13.90;99.90;;;;;;5046636;28;20025;-71
2023/10/20 02:55:33;;;;;;;40.25;27.92;;;13.80;99.90;;;;;;5045542;28;20017;-71
2023/10/20 02:58:00;;;;;;;40.75;28.17;;;13.90;99.90;;;;;;5024967;28;20447;-71
2023/10/20 03:00:26;;;;;;;40.22;28.23;;;13.90;99.90;;;;;;5046814;28;20392;-71
2023/10/20 03:02:53;;;;;;;40.58;28.98;;;13.90;99.90;;;;;;5042409;28;20108;-70
2023/10/20 03:05:20;;;;;;;39.80;28.27;;;13.90;99.90;;;;;;5031082;28;20017;-71
2023/10/20 03:07:46;;;;;;;43.03;29.60;;;13.90;99.90;;;;;;5050096;28;20035;-71
2023/10/20 03:10:12;;;;;;;40.92;29.95;;;13.90;99.90;;;;;;5048092;28;20021;-71
2023/10/20 03:12:38;;;;;;;41.13;29.60;;;13.90;99.90;;;;;;5050006;28;20029;-71
2023/10/20 03:15:11;;;;;;;40.95;29.63;;;13.90;99.90;;;;;;5047964;28;20025;-71
2023/10/20 03:17:36;;;;;;;39.85;29.25;;;13.90;99.90;;;;;;5050476;28;20083;-71
2023/10/20 03:20:08;;;;;;;43.88;31.10;;;13.90;99.90;;;;;;5046639;28;20026;-70
2023/10/20 03:22:34;;;;;;;43.20;29.63;;;13.90;99.90;;;;;;5048945;28;20021;-71
2023/10/20 03:25:03;;;;;;;43.50;29.73;;;13.90;99.90;;;;;;5041172;28;20447;-70
2023/10/20 03:27:30;;;;;;;41.95;30.02;;;13.80;99.90;;;;;;5041723;28;20081;-70
2023/10/20 03:29:55;;;;;;;45.42;30.35;;;13.90;99.90;;;;;;5044433;28;20028;-70
2023/10/20 03:32:21;;;;;;;45.78;31.02;;;13.80;99.90;;;;;;5042657;28;20116;-71
2023/10/20 03:34:47;;;;;;;44.78;29.90;;;13.90;99.90;;;;;;5042427;28;20033;-71
2023/10/20 03:37:13;;;;;;;42.55;28.60;;;13.80;99.90;;;;;;5039844;28;20049;-70
2023/10/20 03:39:39;;;;;;;45.17;30.80;;;13.90;99.90;;;;;;5048338;28;20087;-70
2023/10/20 03:42:10;;;;;;;46.40;32.10;;;13.90;99.90;;;;;;5050522;28;20045;-70
2023/10/20 03:44:37;;;;;;;42.10;29.10;;;13.80;99.90;;;;;;5050004;28;20055;-70
2023/10/20 03:47:05;;;;;;;44.47;30.33;;;13.90;99.90;;;;;;5050065;28;20025;-70
2023/10/20 03:49:33;;;;;;;42.55;30.65;;;13.90;99.90;;;;;;5032687;28;20041;-71
2023/10/20 03:51:59;;;;;;;50.95;31.35;;;13.90;99.90;;;;;;5036149;28;20271;-70
2023/10/20 03:54:25;;;;;;;39.63;29.05;;;13.90;99.90;;;;;;5041840;28;20545;-70
2023/10/20 03:56:51;;;;;;;44.25;30.42;;;13.80;99.90;;;;;;5048346;28;20040;-70
2023/10/20 03:59:18;;;;;;;44.40;30.45;;;13.80;99.90;;;;;;5036761;28;20563;-70
2023/10/20 04:01:43;;;;;;;45.13;30.50;;;13.80;99.90;;;;;;5031948;28;20025;-70
2023/10/20 04:04:11;;;;;;;40.72;29.73;;;13.80;99.90;;;;;;5037759;28;20036;-71
2023/10/20 04:06:37;;;;;;;41.60;28.08;;;13.80;99.90;;;;;;5040156;28;20056;-70
2023/10/20 04:09:08;;;;;;;42.95;29.42;;;13.90;99.90;;;;;;5039122;28;20068;-69
2023/10/20 04:11:35;;;;;;;44.63;30.07;;;13.80;99.90;;;;;;5051390;28;20037;-69
2023/10/20 04:14:02;;;;;;;45.80;31.02;;;13.80;99.90;;;;;;5044779;28;20036;-69
2023/10/20 04:16:27;;;;;;;48.58;31.83;;;13.80;99.90;;;;;;5052905;28;20021;-69
2023/10/20 04:18:53;;;;;;;46.28;31.15;;;13.80;99.90;;;;;;5049740;28;20034;-69
2023/10/20 04:21:18;;;;;;;47.88;31.70;;;13.80;99.90;;;;;;5040001;28;20491;-69
2023/10/20 04:23:44;;;;;;;47.25;31.50;;;13.80;99.90;;;;;;5053535;28;20103;-69
2023/10/20 04:26:20;;;;;;;47.20;30.67;;;13.70;99.90;;;;;;5052961;28;20017;-69
2023/10/20 04:28:47;;;;;;;45.75;30.23;;;13.70;99.90;;;;;;5051387;28;20025;-69
2023/10/20 04:58:34;;;;;;;51.90;29.48;;;13.50;99.90;;;;;;5050916;28;20106;-70
2023/10/20 05:01:27;;;;;;;47.72;28.23;;;13.40;99.90;;;;;;5037885;28;20025;-71
2023/10/20 05:03:53;;;;;;;49.95;30.20;;;13.40;99.90;;;;;;5042587;28;20441;-71
2023/10/20 05:06:41;;;;;;;52.10;29.77;;;13.40;99.90;;;;;;5035921;28;20385;-70
2023/10/20 05:09:09;;;;;;;52.15;30.60;;;13.40;99.90;;;;;;5043331;28;20025;-70
2023/10/20 05:11:35;;;;;;;56.47;29.40;;;13.40;99.90;;;;;;5037194;28;20036;-70
2023/10/20 05:14:00;;;;;;;51.60;28.55;;;13.30;99.90;;;;;;5043085;28;20037;-70
2023/10/20 05:16:28;;;;;;;44.92;28.52;;;13.30;99.90;;;;;;5048966;28;20033;-69
2023/10/20 05:18:55;;;;;;;50.80;28.98;;;13.30;99.90;;;;;;5042415;28;20064;-69
2023/10/20 05:21:21;;;;;;;49.15;28.27;;;13.30;99.90;;;;;;5051816;28;20084;-69
2023/10/20 05:23:49;;;;;;;47.47;27.35;;;13.20;99.90;;;;;;5042165;28;20497;-69
2023/10/20 05:26:15;;;;;;;50.42;28.95;;;13.20;99.90;;;;;;5048197;28;20029;-69
2023/10/20 05:28:40;;;;;;;47.75;28.75;;;13.20;99.90;;;;;;5051586;28;20060;-69
2023/10/20 05:31:07;;;;;;;47.47;27.23;;;13.20;99.90;;;;;;5048396;28;20082;-69
2023/10/20 05:33:33;;;;;;;45.50;26.48;;;13.10;99.90;;;;;;5051848;28;20086;-69
2023/10/20 05:36:05;;;;;;;44.92;25.38;;;13.10;99.90;;;;;;5050629;28;20510;-69
2023/10/20 05:38:31;;;;;;;;;;;13.10;99.90;;;;;;5051244;28;20044;-69
2023/10/20 05:40:58;;;;;;;42.00;24.27;;;13.10;99.90;;;;;;5051654;28;19908;-69
2023/10/20 05:43:25;;;;;;;38.58;22.95;;;13.10;99.90;;;;;;5030556;28;20677;-69
2023/10/20 05:45:50;;;;;;;41.65;24.73;;;13.00;99.90;;;;;;5045869;28;20140;-69
2023/10/20 05:48:16;;;;;;;38.35;23.85;;;13.00;99.90;;;;;;5021509;28;20061;-69
2023/10/20 05:50:41;;;;;;;37.58;22.40;;;13.00;99.90;;;;;;5051164;28;20033;-69
2023/10/20 05:53:07;;;;;;;38.83;24.45;;;13.00;99.90;;;;;;5048420;28;20036;-69
2023/10/20 05:55:33;;;;;;;34.47;21.70;;;13.00;99.90;;;;;;5045860;28;20377;-69
2023/10/20 05:57:59;;;;;;;36.72;21.52;;;13.00;99.90;;;;;;5051668;28;20029;-69
2023/10/20 06:00:24;;;;;;;38.58;22.73;;;12.90;99.90;;;;;;5048286;28;20141;-69
2023/10/20 06:02:50;;;;;;;33.58;20.73;;;12.90;99.90;;;;;;5051574;28;20035;-69
2023/10/20 06:05:16;;;;;;;35.63;21.92;;;12.90;99.90;;;;;;5039073;28;20067;-69
2023/10/20 06:07:43;;;;;;;36.70;22.48;;;12.80;99.90;;;;;;5037544;28;20079;-69
2023/10/20 06:10:09;;;;;;;36.90;21.90;;;12.80;99.90;;;;;;5045135;28;20018;-69
2023/10/20 06:12:34;;;;;;;33.90;20.67;;;12.80;99.90;;;;;;5026268;28;20032;-70
2023/10/20 06:15:00;;;;;;;37.95;21.17;;;12.80;99.90;;;;;;5034576;28;20032;-70
2023/10/20 06:17:25;;;;;;;35.50;21.58;;;12.80;99.90;;;;;;5046155;28;20083;-69
2023/10/20 06:19:51;;;;;;;34.72;20.55;;;12.80;99.90;;;;;;5044815;28;20040;-69
2023/10/20 06:22:17;;;;;;;33.25;20.80;;;12.80;99.90;;;;;;5038461;28;20017;-69
2023/10/20 06:24:43;;;;;;;36.25;19.95;;;12.70;99.90;;;;;;5048432;28;20060;-69
2023/10/20 06:27:09;;;;;;;34.63;20.67;;;12.70;99.90;;;;;;5041589;28;20385;-69
2023/10/20 06:29:48;;;;;;;34.47;20.80;;;12.70;99.90;;;;;;5044154;28;20029;-70
2023/10/20 06:32:25;;;;;;;38.60;22.85;;;12.70;99.90;;;;;;5038443;28;20028;-70
2023/10/20 06:34:53;;;;;;;39.45;21.55;;;12.70;99.90;;;;;;5040635;28;20062;-70
2023/10/20 06:37:28;;;;;;;37.40;21.27;;;12.60;99.90;;;;;;5040779;28;20114;-70
2023/10/20 06:39:54;;;;;;;37.97;20.55;;;12.60;99.90;;;;;;5041685;28;20045;-70
2023/10/20 06:42:20;;;;;;;35.83;21.70;;;12.60;99.90;;;;;;5035196;28;20083;-69
2023/10/20 06:44:45;;;;;;;41.42;21.80;;;12.60;99.90;;;;;;5032139;28;22463;-70
2023/10/20 06:47:11;;;;;;;34.00;20.65;;;12.60;99.90;;;;;;5034434;28;21211;-70
2023/10/20 06:49:37;;;;;;;38.95;21.55;;;12.50;99.90;;;;;;5038947;28;20024;-70
2023/10/20 06:52:03;;;;;;;40.80;21.52;;;12.50;99.90;;;;;;5040425;28;20362;-70
2023/10/20 06:54:29;;;;;;;40.28;21.83;;;12.50;99.90;;;;;;5039457;28;20041;-70
2023/10/20 06:56:55;;;;;;;31.38;19.27;;;12.50;99.90;;;;;;5040960;28;20021;-70
2023/10/20 06:59:20;;;;;;;40.13;21.05;;;12.50;99.90;;;;;;5040572;28;20060;-70
2023/10/20 07:01:46;;;;;;;34.03;18.95;;;12.50;99.90;;;;;;5039025;28;20056;-70
2023/10/20 07:04:12;;;;;;;39.30;20.08;;;12.40;99.90;;;;;;5035315;28;20032;-70
2023/10/20 07:06:38;;;;;;;38.85;20.63;;;12.40;99.90;;;;;;5042559;28;20476;-70
2023/10/20 07:09:11;;;;;;;34.72;20.02;;;12.40;99.90;;;;;;5041077;28;20070;-70
2023/10/20 07:11:41;;;;;;;34.50;19.65;;;12.30;99.90;;;;;;5044556;28;20111;-70
2023/10/20 07:14:07;;;;;;;31.52;18.25;;;12.30;99.90;;;;;;5037741;28;20040;-71
2023/10/20 07:16:33;;;;;;;32.80;18.10;;;12.30;99.90;;;;;;5046088;28;20040;-71
2023/10/20 07:19:00;;;;;;;35.05;19.10;;;12.20;99.90;;;;;;5034783;28;20029;-71
2023/10/20 07:21:26;;;;;;;34.45;17.80;;;12.20;99.90;;;;;;5046691;28;20029;-71
2023/10/20 07:23:52;;;;;;;33.58;17.75;;;12.20;99.90;;;;;;5044607;28;20095;-70
2023/10/20 07:26:18;;;;;;;33.00;18.23;;;12.10;99.90;;;;;;5043499;28;20040;-70
2023/10/20 07:28:44;;;;;;;34.60;17.40;;;12.10;99.90;;;;;;5048221;28;20021;-70
2023/10/20 07:31:12;;;;;;;34.67;18.08;;;12.10;99.90;;;;;;5042113;28;20516;-71
2023/10/20 07:33:38;;;;;;;35.30;19.13;;;12.10;99.90;;;;;;5042963;28;20539;-71
2023/10/20 07:36:05;;;;;;;29.33;16.55;;;12.00;99.90;;;;;;5050373;28;20048;-71
2023/10/20 07:38:30;;;;;;;33.00;17.73;;;12.00;99.90;;;;;;5050543;28;20513;-71
2023/10/20 07:40:56;;;;;;;29.77;16.48;;;12.00;99.90;;;;;;5038566;28;20037;-72
2023/10/20 07:43:21;;;;;;;27.52;15.35;;;12.00;99.90;;;;;;5046281;28;20036;-71
2023/10/20 07:45:49;;;;;;;27.92;15.15;;;12.00;99.90;;;;;;5045800;28;20048;-71
2023/10/20 07:48:15;;;;;;;24.75;14.05;;;12.00;99.90;;;;;;5042535;28;20036;-71
2023/10/20 07:50:40;;;;;;;26.65;13.98;;;11.90;99.90;;;;;;5043252;28;20037;-70
2023/10/20 07:53:07;;;;;;;24.00;13.15;;;11.90;99.90;;;;;;5052526;28;20037;-71
2023/10/20 07:55:32;;;;;;;24.25;13.00;;;11.90;99.90;;;;;;5053489;28;20025;-71
2023/10/20 07:57:58;;;;;;;22.10;12.93;;;11.80;99.90;;;;;;5050838;28;20493;-71
2023/10/20 08:00:24;;;;;;;21.33;11.57;;;11.80;99.90;;;;;;5049695;28;20422;-71
2023/10/20 08:02:50;;;;;;;20.40;11.40;;;11.80;99.90;;;;;;5049439;28;20021;-70
2023/10/20 08:05:16;;;;;;;20.25;12.13;;;11.80;99.90;;;;;;5053663;28;20033;-71
2023/10/20 08:07:43;;;;;;;20.98;12.13;;;11.70;99.90;;;;;;5050425;28;20056;-71
2023/10/20 08:10:08;;;;;;;20.95;10.88;;;11.70;99.90;;;;;;5053228;28;20025;-70
2023/10/20 08:12:34;;;;;;;19.58;10.80;;;11.70;99.90;;;;;;5053650;28;20021;-71
2023/10/20 08:14:59;;;;;;;18.55;10.05;;;11.70;99.90;;;;;;5051245;28;20032;-70
2023/10/20 08:17:25;;;;;;;16.50;9.38;;;11.60;99.90;;;;;;5047715;28;20086;-70
2023/10/20 08:19:51;;;;;;;14.43;8.82;;;11.60;99.90;;;;;;5048686;28;20503;-70
2023/10/20 08:22:16;;;;;;;17.60;9.27;;;11.60;99.90;;;;;;5053211;28;20025;-70
2023/10/20 08:24:42;;;;;;;13.60;7.90;;;11.50;99.90;;;;;;5050864;28;20033;-70
2023/10/20 08:27:07;;;;;;;15.65;8.32;;;11.50;99.90;;;;;;5051382;28;20017;-70
2023/10/20 08:29:33;;;;;;;13.30;8.05;;;11.40;99.90;;;;;;5049996;28;20104;-70
2023/10/20 08:31:59;;;;;;;12.63;7.03;;;11.40;99.90;;;;;;5051132;28;20051;-70
2023/10/20 08:34:24;;;;;;;11.80;6.50;;;11.40;99.90;;;;;;5045896;28;20029;-70
2023/10/20 08:36:50;;;;;;;12.00;7.43;;;11.40;99.90;;;;;;5050630;28;20049;-70
2023/10/20 08:39:20;;;;;;;11.70;6.32;;;11.40;99.90;;;;;;5046276;28;20044;-70
2023/10/20 08:41:46;;;;;;;13.20;6.25;;;11.30;99.90;;;;;;5045709;28;20021;-70
2023/10/20 08:44:12;;;;;;;10.77;5.72;;;11.30;99.90;;;;;;5042146;28;20490;-69
2023/10/20 08:46:41;;;;;;;8.30;5.43;;;11.30;99.90;;;;;;5050638;28;20025;-69
2023/10/20 08:49:08;;;;;;;8.77;5.22;;;11.30;99.90;;;;;;5047848;28;20397;-69
2023/10/20 08:51:37;;;;;;;6.68;4.03;;;11.20;99.90;;;;;;5049466;28;20029;-69
2023/10/20 08:54:04;;;;;;;8.18;4.90;;;11.20;99.90;;;;;;5033779;28;20021;-69
2023/10/20 08:56:29;;;;;;;7.68;4.88;;;11.20;99.90;;;;;;5050244;28;20041;-69
2023/10/20 08:58:55;;;;;;;9.70;4.22;;;11.10;99.90;;;;;;5043657;28;20148;-70
2023/10/20 09:01:20;;;;;;;5.30;3.00;;;11.10;99.90;;;;;;5044990;28;20053;-70
2023/10/20 09:03:55;;;;;;;5.28;3.92;;;11.10;99.90;;;;;;5052279;28;20484;-70
2023/10/20 09:06:24;;;;;;;6.50;3.67;;;11.10;99.90;;;;;;5052057;28;20017;-70
2023/10/20 09:08:50;;;;;;;6.40;3.95;;;11.10;99.90;;;;;;5052554;28;20047;-70
2023/10/20 09:11:18;;;;;;;6.05;3.80;;;11.10;99.90;;;;;;5052061;28;20463;-70
2023/10/20 09:13:44;;;;;;;5.90;3.70;;;11.00;99.90;;;;;;5052531;28;20418;-70
2023/10/20 09:16:12;;;;;;;4.65;3.05;;;11.00;99.90;;;;;;5051799;28;20474;-70
2023/10/20 09:18:49;;;;;;;4.95;3.22;;;11.00;99.90;;;;;;5052310;28;20037;-69
2023/10/20 09:21:17;;;;;;;5.28;2.72;;;11.00;99.90;;;;;;5052191;28;20024;-70
2023/10/20 09:24:01;;;;;;;6.68;2.78;;;11.00;99.90;;;;;;5051569;28;20028;-69
2023/10/20 09:26:29;;;;;;;4.75;2.95;;;11.00;99.90;;;;;;5051111;28;20099;-70
2023/10/20 09:28:56;;;;;;;4.13;2.47;;;11.00;99.90;;;;;;5052309;28;20021;-70
2023/10/20 09:31:22;;;;;;;5.03;2.78;;;11.00;99.90;;;;;;5051784;28;20111;-69
2023/10/20 09:33:49;;;;;;;5.53;2.47;;;10.90;99.90;;;;;;5051931;28;20361;-70
2023/10/20 09:36:14;;;;;;;6.57;2.70;;;10.90;99.90;;;;;;5050775;28;20048;-70
2023/10/20 09:38:50;;;;;;;5.13;2.58;;;10.90;99.90;;;;;;5051889;28;20419;-70
2023/10/20 09:41:17;;;;;;;3.75;2.53;;;10.90;99.90;;;;;;5050470;28;20373;-70
2023/10/20 09:43:54;;;;;;;4.18;2.38;;;10.90;99.90;;;;;;5047424;28;20028;-70
2023/10/20 09:46:19;;;;;;;6.30;2.15;;;11.00;99.90;;;;;;5047416;28;20486;-70
2023/10/20 09:48:47;;;;;;;3.67;1.70;;;10.90;99.90;;;;;;5051298;28;20053;-70
2023/10/20 09:51:15;;;;;;;3.40;1.90;;;10.90;99.90;;;;;;5051507;28;20130;-70
2023/10/20 09:53:42;;;;;;;6.43;2.58;;;10.90;99.90;;;;;;5051493;28;20532;-70
2023/10/20 09:56:08;;;;;;;2.55;1.85;;;10.90;99.90;;;;;;5051110;28;20024;-69
2023/10/20 09:58:36;;;;;;;3.97;1.95;;;11.00;99.90;;;;;;5051737;28;20436;-70
2023/10/20 10:01:03;;;;;;;3.50;1.92;;;11.00;99.90;;;;;;5051334;28;20035;-70
2023/10/20 10:03:42;;;;;;;3.13;1.95;;;11.00;99.90;;;;;;5050946;28;20366;-70
2023/10/20 10:06:17;;;;;;;3.85;2.15;;;11.10;99.90;;;;;;5050894;28;20032;-70
2023/10/20 10:08:43;;;;;;;2.55;1.45;;;11.10;99.90;;;;;;5051606;28;20033;-70
2023/10/20 10:11:29;;;;;;;3.38;1.50;;;11.10;99.90;;;;;;5050987;28;20087;-70
2023/10/20 10:13:59;;;;;;;3.50;1.10;;;11.20;99.90;;;;;;5051402;28;20112;-70
2023/10/20 10:16:25;;;;;;;2.92;1.20;;;11.10;99.90;;;;;;5048005;28;20048;-69
2023/10/20 10:18:54;;;;;;;2.17;1.25;;;11.10;99.90;;;;;;5051497;28;20048;-69
2023/10/20 10:21:29;;;;;;;2.78;1.20;;;11.20;99.90;;;;;;5050938;28;20439;-69
2023/10/20 10:24:16;;;;;;;2.63;1.20;;;11.10;99.90;;;;;;5050831;28;20424;-69
2023/10/20 10:26:57;;;;;;;2.50;1.17;;;11.10;99.90;;;;;;5050833;28;20119;-69
2023/10/20 10:29:45;;;;;;;2.72;1.42;;;11.10;99.90;;;;;;5032727;28;20476;-68
2023/10/20 10:32:14;;;;;;;2.55;1.38;;;11.20;99.90;;;;;;5037287;28;20028;-68
2023/10/20 10:34:42;;;;;;;2.53;1.30;;;11.20;99.90;;;;;;5050987;28;20090;-69
2023/10/20 10:37:08;;;;;;;2.55;1.10;;;11.20;99.90;;;;;;5050333;28;20049;-68
2023/10/20 10:39:33;;;;;;;2.75;1.23;;;11.20;99.90;;;;;;5050951;28;20033;-69
2023/10/20 10:42:03;;;;;;;3.17;1.10;;;11.30;99.90;;;;;;5051420;28;20017;-68
2023/10/20 10:44:36;;;;;;;3.22;1.45;;;11.30;99.90;;;;;;5050786;28;20027;-69
2023/10/20 10:47:05;;;;;;;3.05;1.15;;;11.30;99.90;;;;;;5051025;28;20029;-69
2023/10/20 10:49:32;;;;;;;2.28;1.00;;;11.40;99.90;;;;;;5051279;28;20481;-69
2023/10/20 10:52:03;;;;;;;2.08;1.15;;;11.40;99.90;;;;;;5051288;28;20032;-69
2023/10/20 10:54:33;;;;;;;2.83;1.02;;;11.40;99.90;;;;;;5050567;28;20037;-69
2023/10/20 10:57:03;;;;;;;3.33;1.15;;;11.40;99.90;;;;;;5050904;28;20037;-69
2023/10/20 10:59:29;;;;;;;2.15;1.13;;;11.30;99.90;;;;;;5050646;28;20048;-69
2023/10/20 11:01:55;;;;;;;1.70;1.10;;;11.30;99.90;;;;;;5052608;28;20476;-69
2023/10/20 11:04:21;;;;;;;2.22;1.17;;;11.30;99.90;;;;;;5054759;28;20108;-69
2023/10/20 11:06:47;;;;;;;1.77;0.93;;;11.30;99.90;;;;;;5054990;28;20048;-70
2023/10/20 11:09:19;;;;;;;2.00;0.80;;;11.30;99.90;;;;;;5054948;28;20508;-69
2023/10/20 11:11:47;;;;;;;1.80;0.80;;;11.30;99.90;;;;;;5054552;28;20028;-70
2023/10/20 11:14:17;;;;;;;1.65;1.10;;;11.30;99.90;;;;;;5054257;28;20473;-69
2023/10/20 11:16:43;;;;;;;1.40;0.85;;;11.30;99.90;;;;;;5036373;28;20431;-69
2023/10/20 11:19:12;;;;;;;1.80;1.00;;;11.30;99.90;;;;;;5054102;28;20037;-69
2023/10/20 11:21:53;;;;;;;1.70;1.08;;;11.40;99.90;;;;;;5053801;28;20465;-69
2023/10/20 11:24:25;;;;;;;1.58;0.70;;;11.40;99.90;;;;;;5053985;28;20051;-69
2023/10/20 11:27:01;;;;;;;1.70;1.00;;;11.40;99.90;;;;;;5051969;28;20415;-69
2023/10/20 11:29:28;;;;;;;2.03;0.95;;;11.40;99.90;;;;;;5057576;28;20021;-69
2023/10/20 11:31:55;;;;;;;2.00;1.00;;;11.50;99.90;;;;;;5054422;28;20473;-70
2023/10/20 11:34:21;;;;;;;1.65;0.80;;;11.60;99.90;;;;;;5054483;28;20083;-70
2023/10/20 11:36:47;;;;;;;1.77;1.02;;;11.60;99.90;;;;;;5054349;28;20049;-70
2023/10/20 11:39:15;;;;;;;1.80;0.98;;;11.60;99.90;;;;;;5054552;28;20043;-70
2023/10/20 11:41:40;;;;;;;2.67;1.33;;;11.60;99.90;;;;;;5054324;28;20500;-70
2023/10/20 11:44:06;;;;;;;1.98;1.00;;;11.60;99.90;;;;;;5054273;28;20072;-70
2023/10/20 11:46:31;;;;;;;2.30;0.80;;;11.60;99.90;;;;;;5054350;28;20021;-69
2023/10/20 11:48:57;;;;;;;1.77;0.80;;;11.60;99.90;;;;;;5054263;28;20094;-70
2023/10/20 11:51:22;;;;;;;1.88;0.88;;;11.70;99.90;;;;;;5053907;28;20066;-70
2023/10/20 11:53:48;;;;;;;1.63;0.98;;;11.70;99.90;;;;;;5054140;28;20029;-70
2023/10/20 11:56:13;;;;;;;1.60;0.73;;;11.60;99.90;;;;;;5053494;28;20021;-70
2023/10/20 11:58:39;;;;;;;1.55;0.80;;;11.70;99.90;;;;;;5036534;28;20563;-70
2023/10/20 12:01:04;;;;;;;1.38;0.80;;;11.70;99.90;;;;;;5053462;28;20033;-70
2023/10/20 12:03:30;;;;;;;1.63;0.90;;;11.70;99.90;;;;;;5054133;28;20032;-70
2023/10/20 12:05:56;;;;;;;1.80;0.80;;;11.70;99.90;;;;;;5053693;28;20025;-70
2023/10/20 12:08:23;;;;;;;1.05;0.60;;;11.70;99.90;;;;;;5053636;28;20025;-70
2023/10/20 12:10:48;;;;;;;1.60;0.80;;;11.80;99.90;;;;;;5053204;28;20415;-70
2023/10/20 12:13:14;;;;;;;1.38;0.80;;;11.80;99.90;;;;;;5052217;28;20115;-70
2023/10/20 12:15:40;;;;;;;1.40;0.80;;;11.80;99.90;;;;;;5053724;28;20031;-70
2023/10/20 12:18:06;;;;;;;1.30;0.70;;;11.80;99.90;;;;;;5052838;28;20029;-70
2023/10/20 12:20:32;;;;;;;1.90;0.70;;;11.80;99.90;;;;;;5053700;28;20052;-70
2023/10/20 12:22:58;;;;;;;1.15;0.68;;;11.80;99.90;;;;;;5053506;28;20057;-70
2023/10/20 12:25:25;;;;;;;2.00;0.75;;;11.90;99.90;;;;;;5053355;28;20360;-70
2023/10/20 12:27:51;;;;;;;3.10;0.85;;;11.90;99.90;;;;;;5053447;28;20033;-70
2023/10/20 12:30:17;;;;;;;1.35;0.63;;;11.80;99.90;;;;;;5053082;28;20036;-70
2023/10/20 12:32:43;;;;;;;1.10;0.60;;;11.80;99.90;;;;;;5053199;28;20386;-70
2023/10/20 12:35:12;;;;;;;2.75;0.65;;;11.80;99.90;;;;;;5052608;28;20029;-70
2023/10/20 12:37:38;;;;;;;1.08;0.68;;;11.80;99.90;;;;;;5036010;28;20029;-70
2023/10/20 12:40:05;;;;;;;1.20;0.55;;;11.80;99.90;;;;;;5053430;28;20488;-70
2023/10/20 12:42:31;;;;;;;3.03;0.80;;;11.80;99.90;;;;;;5052841;28;20473;-70
2023/10/20 12:45:00;;;;;;;1.90;0.63;;;11.70;99.90;;;;;;5052945;28;20044;-70
2023/10/20 12:47:26;;;;;;;1.50;0.90;;;11.80;99.90;;;;;;5052956;28;20029;-70
2023/10/20 12:49:54;;;;;;;1.60;0.80;;;11.80;99.90;;;;;;5053054;28;20543;-70
2023/10/20 12:52:20;;;;;;;1.30;0.70;;;11.70;99.90;;;;;;5052765;28;20060;-70
2023/10/20 12:54:45;;;;;;;1.13;0.60;;;11.70;99.90;;;;;;5053084;28;20114;-70
2023/10/20 12:57:12;;;;;;;2.42;0.60;;;11.70;99.90;;;;;;5052180;28;20029;-70
2023/10/20 12:59:38;;;;;;;1.30;0.60;;;11.60;99.90;;;;;;5053067;28;20040;-70
2023/10/20 13:02:04;;;;;;;1.10;0.60;;;11.60;99.90;;;;;;5052990;28;20025;-70